sensor_id;sensor_type;location;lat;lon;timestamp;P1;durP1;ratioP1;P2;durP2;ratioP2
77085;SDS011;66014;53.134;18.006;2023-05-10T00:00:54;5.60;;;3.10;;
77085;SDS011;66014;53.134;18.006;2023-05-10T00:03:20;8.20;;;3.60;;
77085;SDS011;66014;53.134;18.006;2023-05-10T00:05:46;6.00;;;3.50;;
77085;SDS011;66014;53.134;18.006;2023-05-10T00:08:13;8.50;;;3.40;;
77085;SDS011;66014;53.134;18.006;2023-05-10T00:10:39;6.90;;;3.80;;
77085;SDS011;66014;53.134;18.006;2023-05-10T00:13:07;5.90;;;3.40;;
77085;SDS011;66014;53.134;18.006;2023-05-10T00:15:34;7.40;;;4.10;;
77085;SDS011;66014;53.134;18.006;2023-05-10T00:18:01;6.00;;;3.40;;
77085;SDS011;66014;53.134;18.006;2023-05-10T00:20:29;6.00;;;3.10;;
77085;SDS011;66014;53.134;18.006;2023-05-10T00:22:56;7.20;;;3.60;;
77085;SDS011;66014;53.134;18.006;2023-05-10T00:25:22;7.90;;;3.80;;
77085;SDS011;66014;53.134;18.006;2023-05-10T00:27:49;5.40;;;2.90;;
77085;SDS011;66014;53.134;18.006;2023-05-10T00:30:16;6.40;;;3.60;;
77085;SDS011;66014;53.134;18.006;2023-05-10T00:32:42;9.10;;;3.50;;
77085;SDS011;66014;53.134;18.006;2023-05-10T00:35:09;7.20;;;3.20;;
77085;SDS011;66014;53.134;18.006;2023-05-10T00:37:36;6.50;;;3.70;;
77085;SDS011;66014;53.134;18.006;2023-05-10T00:40:03;7.60;;;3.60;;
77085;SDS011;66014;53.134;18.006;2023-05-10T00:42:31;5.80;;;3.40;;
77085;SDS011;66014;53.134;18.006;2023-05-10T00:44:57;8.80;;;4.00;;
77085;SDS011;66014;53.134;18.006;2023-05-10T00:47:26;6.50;;;3.30;;
77085;SDS011;66014;53.134;18.006;2023-05-10T00:49:54;6.60;;;4.00;;
77085;SDS011;66014;53.134;18.006;2023-05-10T00:52:22;6.80;;;3.60;;
77085;SDS011;66014;53.134;18.006;2023-05-10T00:54:50;5.80;;;3.40;;
77085;SDS011;66014;53.134;18.006;2023-05-10T00:57:18;7.90;;;3.40;;
77085;SDS011;66014;53.134;18.006;2023-05-10T00:59:45;7.30;;;3.40;;
77085;SDS011;66014;53.134;18.006;2023-05-10T01:02:12;8.30;;;3.40;;
77085;SDS011;66014;53.134;18.006;2023-05-10T01:04:39;6.30;;;3.80;;
77085;SDS011;66014;53.134;18.006;2023-05-10T01:07:07;6.70;;;3.70;;
77085;SDS011;66014;53.134;18.006;2023-05-10T01:09:34;6.60;;;3.70;;
77085;SDS011;66014;53.134;18.006;2023-05-10T01:12:01;5.70;;;3.40;;
77085;SDS011;66014;53.134;18.006;2023-05-10T01:14:28;9.30;;;4.10;;
77085;SDS011;66014;53.134;18.006;2023-05-10T01:16:55;6.20;;;3.40;;
77085;SDS011;66014;53.134;18.006;2023-05-10T01:19:23;8.90;;;3.50;;
77085;SDS011;66014;53.134;18.006;2023-05-10T01:22:13;5.60;;;3.20;;
77085;SDS011;66014;53.134;18.006;2023-05-10T01:30:29;6.80;;;3.40;;
77085;SDS011;66014;53.134;18.006;2023-05-10T01:38:32;8.40;;;3.70;;
77085;SDS011;66014;53.134;18.006;2023-05-10T01:41:13;9.30;;;4.00;;
77085;SDS011;66014;53.134;18.006;2023-05-10T01:43:48;7.80;;;4.30;;
77085;SDS011;66014;53.134;18.006;2023-05-10T01:46:24;8.30;;;4.40;;
77085;SDS011;66014;53.134;18.006;2023-05-10T01:49:01;8.50;;;3.30;;
77085;SDS011;66014;53.134;18.006;2023-05-10T01:51:39;7.60;;;3.40;;
77085;SDS011;66014;53.134;18.006;2023-05-10T01:54:11;6.80;;;3.30;;
77085;SDS011;66014;53.134;18.006;2023-05-10T01:56:39;7.90;;;4.00;;
77085;SDS011;66014;53.134;18.006;2023-05-10T01:59:11;7.80;;;3.50;;
77085;SDS011;66014;53.134;18.006;2023-05-10T02:01:41;6.60;;;3.70;;
77085;SDS011;66014;53.134;18.006;2023-05-10T02:04:09;10.70;;;4.20;;
77085;SDS011;66014;53.134;18.006;2023-05-10T02:06:40;7.80;;;4.40;;
77085;SDS011;66014;53.134;18.006;2023-05-10T02:09:08;9.90;;;4.50;;
77085;SDS011;66014;53.134;18.006;2023-05-10T02:11:38;7.50;;;3.90;;
77085;SDS011;66014;53.134;18.006;2023-05-10T02:14:07;6.90;;;4.40;;
77085;SDS011;66014;53.134;18.006;2023-05-10T02:16:35;8.30;;;4.00;;
77085;SDS011;66014;53.134;18.006;2023-05-10T02:19:04;10.40;;;4.20;;
77085;SDS011;66014;53.134;18.006;2023-05-10T02:21:32;9.80;;;4.60;;
77085;SDS011;66014;53.134;18.006;2023-05-10T02:24:00;11.00;;;4.80;;
77085;SDS011;66014;53.134;18.006;2023-05-10T02:26:28;7.80;;;4.10;;
77085;SDS011;66014;53.134;18.006;2023-05-10T02:28:56;9.00;;;4.30;;
77085;SDS011;66014;53.134;18.006;2023-05-10T02:31:24;7.40;;;3.90;;
77085;SDS011;66014;53.134;18.006;2023-05-10T02:33:52;8.10;;;4.10;;
77085;SDS011;66014;53.134;18.006;2023-05-10T02:36:20;8.90;;;4.30;;
77085;SDS011;66014;53.134;18.006;2023-05-10T02:38:48;9.90;;;4.40;;
77085;SDS011;66014;53.134;18.006;2023-05-10T02:41:18;6.80;;;3.80;;
77085;SDS011;66014;53.134;18.006;2023-05-10T02:43:49;9.50;;;4.40;;
77085;SDS011;66014;53.134;18.006;2023-05-10T02:46:18;7.90;;;4.40;;
77085;SDS011;66014;53.134;18.006;2023-05-10T02:48:45;6.70;;;3.70;;
77085;SDS011;66014;53.134;18.006;2023-05-10T02:51:11;9.60;;;4.50;;
77085;SDS011;66014;53.134;18.006;2023-05-10T02:53:44;6.40;;;4.10;;
77085;SDS011;66014;53.134;18.006;2023-05-10T02:56:16;7.40;;;3.60;;
77085;SDS011;66014;53.134;18.006;2023-05-10T02:58:49;8.20;;;3.90;;
77085;SDS011;66014;53.134;18.006;2023-05-10T03:01:16;8.90;;;4.30;;
77085;SDS011;66014;53.134;18.006;2023-05-10T03:03:42;7.40;;;4.00;;
77085;SDS011;66014;53.134;18.006;2023-05-10T03:06:09;8.70;;;4.70;;
77085;SDS011;66014;53.134;18.006;2023-05-10T03:08:35;7.50;;;3.90;;
77085;SDS011;66014;53.134;18.006;2023-05-10T03:14:34;9.30;;;4.10;;
77085;SDS011;66014;53.134;18.006;2023-05-10T03:16:47;11.80;;;4.80;;
77085;SDS011;66014;53.134;18.006;2023-05-10T03:19:47;8.30;;;4.60;;
77085;SDS011;66014;53.134;18.006;2023-05-10T03:22:36;8.00;;;4.80;;
77085;SDS011;66014;53.134;18.006;2023-05-10T03:25:06;9.40;;;4.30;;
77085;SDS011;66014;53.134;18.006;2023-05-10T03:27:35;9.30;;;4.30;;
77085;SDS011;66014;53.134;18.006;2023-05-10T03:30:05;7.60;;;4.20;;
77085;SDS011;66014;53.134;18.006;2023-05-10T03:32:39;7.00;;;3.70;;
77085;SDS011;66014;53.134;18.006;2023-05-10T03:35:07;7.10;;;4.10;;
77085;SDS011;66014;53.134;18.006;2023-05-10T03:37:35;7.50;;;4.10;;
77085;SDS011;66014;53.134;18.006;2023-05-10T03:40:02;8.00;;;4.10;;
77085;SDS011;66014;53.134;18.006;2023-05-10T03:42:29;11.40;;;4.80;;
77085;SDS011;66014;53.134;18.006;2023-05-10T03:44:55;5.90;;;3.70;;
77085;SDS011;66014;53.134;18.006;2023-05-10T03:47:22;8.90;;;4.30;;
77085;SDS011;66014;53.134;18.006;2023-05-10T03:49:49;8.80;;;3.90;;
77085;SDS011;66014;53.134;18.006;2023-05-10T03:52:15;7.40;;;4.40;;
77085;SDS011;66014;53.134;18.006;2023-05-10T03:54:43;11.40;;;4.00;;
77085;SDS011;66014;53.134;18.006;2023-05-10T03:57:09;11.20;;;4.30;;
77085;SDS011;66014;53.134;18.006;2023-05-10T03:59:35;9.90;;;4.20;;
77085;SDS011;66014;53.134;18.006;2023-05-10T04:02:02;8.60;;;4.20;;
77085;SDS011;66014;53.134;18.006;2023-05-10T04:04:28;7.20;;;4.10;;
77085;SDS011;66014;53.134;18.006;2023-05-10T04:06:55;7.20;;;4.10;;
77085;SDS011;66014;53.134;18.006;2023-05-10T04:09:22;10.00;;;4.50;;
77085;SDS011;66014;53.134;18.006;2023-05-10T04:11:48;6.60;;;4.00;;
77085;SDS011;66014;53.134;18.006;2023-05-10T04:14:15;7.30;;;3.90;;
77085;SDS011;66014;53.134;18.006;2023-05-10T04:16:42;7.30;;;4.30;;
77085;SDS011;66014;53.134;18.006;2023-05-10T04:19:09;9.00;;;4.30;;
77085;SDS011;66014;53.134;18.006;2023-05-10T04:21:36;11.90;;;5.00;;
77085;SDS011;66014;53.134;18.006;2023-05-10T04:24:02;10.30;;;4.50;;
77085;SDS011;66014;53.134;18.006;2023-05-10T04:26:29;8.40;;;4.60;;
77085;SDS011;66014;53.134;18.006;2023-05-10T04:28:56;8.50;;;4.10;;
77085;SDS011;66014;53.134;18.006;2023-05-10T04:31:22;6.20;;;4.00;;
77085;SDS011;66014;53.134;18.006;2023-05-10T04:33:49;9.30;;;4.30;;
77085;SDS011;66014;53.134;18.006;2023-05-10T04:36:16;9.10;;;4.30;;
77085;SDS011;66014;53.134;18.006;2023-05-10T04:38:42;8.40;;;4.70;;
77085;SDS011;66014;53.134;18.006;2023-05-10T04:41:10;8.10;;;4.20;;
77085;SDS011;66014;53.134;18.006;2023-05-10T04:43:38;7.70;;;4.00;;
77085;SDS011;66014;53.134;18.006;2023-05-10T04:46:05;11.60;;;5.20;;
77085;SDS011;66014;53.134;18.006;2023-05-10T04:48:32;12.00;;;5.10;;
77085;SDS011;66014;53.134;18.006;2023-05-10T04:50:59;6.30;;;3.30;;
77085;SDS011;66014;53.134;18.006;2023-05-10T04:53:25;10.10;;;4.20;;
77085;SDS011;66014;53.134;18.006;2023-05-10T04:55:52;8.10;;;4.10;;
77085;SDS011;66014;53.134;18.006;2023-05-10T04:58:18;6.90;;;3.80;;
77085;SDS011;66014;53.134;18.006;2023-05-10T05:00:45;7.90;;;4.20;;
77085;SDS011;66014;53.134;18.006;2023-05-10T05:03:12;7.20;;;4.00;;
77085;SDS011;66014;53.134;18.006;2023-05-10T05:05:38;7.70;;;3.80;;
77085;SDS011;66014;53.134;18.006;2023-05-10T05:08:05;7.80;;;4.10;;
77085;SDS011;66014;53.134;18.006;2023-05-10T05:10:32;10.20;;;4.00;;
77085;SDS011;66014;53.134;18.006;2023-05-10T05:13:00;8.10;;;3.90;;
77085;SDS011;66014;53.134;18.006;2023-05-10T05:15:26;10.10;;;3.70;;
77085;SDS011;66014;53.134;18.006;2023-05-10T05:17:53;10.00;;;3.80;;
77085;SDS011;66014;53.134;18.006;2023-05-10T05:20:20;9.20;;;4.00;;
77085;SDS011;66014;53.134;18.006;2023-05-10T05:22:46;8.20;;;4.10;;
77085;SDS011;66014;53.134;18.006;2023-05-10T05:25:13;10.50;;;4.00;;
77085;SDS011;66014;53.134;18.006;2023-05-10T05:27:39;8.40;;;3.80;;
77085;SDS011;66014;53.134;18.006;2023-05-10T05:30:06;13.80;;;3.90;;
77085;SDS011;66014;53.134;18.006;2023-05-10T05:32:33;8.60;;;3.70;;
77085;SDS011;66014;53.134;18.006;2023-05-10T05:35:00;11.90;;;4.70;;
77085;SDS011;66014;53.134;18.006;2023-05-10T05:37:26;12.70;;;4.70;;
77085;SDS011;66014;53.134;18.006;2023-05-10T05:39:53;12.50;;;4.30;;
77085;SDS011;66014;53.134;18.006;2023-05-10T05:42:21;11.30;;;4.70;;
77085;SDS011;66014;53.134;18.006;2023-05-10T05:44:47;7.50;;;4.00;;
77085;SDS011;66014;53.134;18.006;2023-05-10T05:47:14;9.70;;;4.30;;
77085;SDS011;66014;53.134;18.006;2023-05-10T05:49:43;7.70;;;3.90;;
77085;SDS011;66014;53.134;18.006;2023-05-10T05:52:11;9.00;;;3.80;;
77085;SDS011;66014;53.134;18.006;2023-05-10T05:54:38;10.10;;;3.60;;
77085;SDS011;66014;53.134;18.006;2023-05-10T05:57:05;8.90;;;3.50;;
77085;SDS011;66014;53.134;18.006;2023-05-10T05:59:31;4.80;;;2.60;;
77085;SDS011;66014;53.134;18.006;2023-05-10T06:01:58;5.70;;;2.80;;
77085;SDS011;66014;53.134;18.006;2023-05-10T06:04:24;6.80;;;3.20;;
77085;SDS011;66014;53.134;18.006;2023-05-10T06:06:51;12.20;;;3.30;;
77085;SDS011;66014;53.134;18.006;2023-05-10T06:09:17;5.90;;;3.00;;
77085;SDS011;66014;53.134;18.006;2023-05-10T06:11:44;7.00;;;3.10;;
77085;SDS011;66014;53.134;18.006;2023-05-10T06:14:11;5.50;;;2.80;;
77085;SDS011;66014;53.134;18.006;2023-05-10T06:16:37;5.10;;;2.80;;
77085;SDS011;66014;53.134;18.006;2023-05-10T06:19:04;6.50;;;3.10;;
77085;SDS011;66014;53.134;18.006;2023-05-10T06:21:31;7.10;;;2.90;;
77085;SDS011;66014;53.134;18.006;2023-05-10T06:23:58;9.80;;;3.40;;
77085;SDS011;66014;53.134;18.006;2023-05-10T06:26:24;8.00;;;2.80;;
77085;SDS011;66014;53.134;18.006;2023-05-10T06:28:51;4.90;;;2.90;;
77085;SDS011;66014;53.134;18.006;2023-05-10T06:31:17;7.00;;;3.10;;
77085;SDS011;66014;53.134;18.006;2023-05-10T06:33:44;5.00;;;2.60;;
77085;SDS011;66014;53.134;18.006;2023-05-10T06:36:11;6.90;;;2.90;;
77085;SDS011;66014;53.134;18.006;2023-05-10T06:38:37;8.30;;;2.80;;
77085;SDS011;66014;53.134;18.006;2023-05-10T06:41:04;6.10;;;2.60;;
77085;SDS011;66014;53.134;18.006;2023-05-10T06:43:30;4.70;;;2.40;;
77085;SDS011;66014;53.134;18.006;2023-05-10T06:45:57;5.80;;;2.30;;
77085;SDS011;66014;53.134;18.006;2023-05-10T06:48:24;5.50;;;2.50;;
77085;SDS011;66014;53.134;18.006;2023-05-10T06:50:50;8.80;;;2.70;;
77085;SDS011;66014;53.134;18.006;2023-05-10T06:53:17;4.50;;;2.40;;
77085;SDS011;66014;53.134;18.006;2023-05-10T06:55:44;5.60;;;2.40;;
77085;SDS011;66014;53.134;18.006;2023-05-10T06:58:10;7.80;;;2.60;;
77085;SDS011;66014;53.134;18.006;2023-05-10T07:00:37;4.80;;;2.20;;
77085;SDS011;66014;53.134;18.006;2023-05-10T07:05:33;5.20;;;2.40;;
77085;SDS011;66014;53.134;18.006;2023-05-10T07:08:00;4.90;;;2.40;;
77085;SDS011;66014;53.134;18.006;2023-05-10T07:10:27;6.60;;;2.40;;
77085;SDS011;66014;53.134;18.006;2023-05-10T07:12:53;6.20;;;2.40;;
77085;SDS011;66014;53.134;18.006;2023-05-10T07:15:20;5.30;;;2.10;;
77085;SDS011;66014;53.134;18.006;2023-05-10T07:17:47;6.70;;;2.20;;
77085;SDS011;66014;53.134;18.006;2023-05-10T07:20:13;4.40;;;2.30;;
77085;SDS011;66014;53.134;18.006;2023-05-10T07:22:40;5.50;;;2.40;;
77085;SDS011;66014;53.134;18.006;2023-05-10T07:25:07;4.50;;;2.10;;
77085;SDS011;66014;53.134;18.006;2023-05-10T07:27:34;5.60;;;2.50;;
77085;SDS011;66014;53.134;18.006;2023-05-10T07:30:00;5.80;;;2.40;;
77085;SDS011;66014;53.134;18.006;2023-05-10T07:32:27;6.40;;;2.40;;
77085;SDS011;66014;53.134;18.006;2023-05-10T07:34:54;5.70;;;2.30;;
77085;SDS011;66014;53.134;18.006;2023-05-10T07:37:20;4.20;;;1.90;;
77085;SDS011;66014;53.134;18.006;2023-05-10T07:39:47;4.50;;;2.10;;
77085;SDS011;66014;53.134;18.006;2023-05-10T07:42:13;5.70;;;2.50;;
77085;SDS011;66014;53.134;18.006;2023-05-10T07:44:40;5.20;;;2.70;;
77085;SDS011;66014;53.134;18.006;2023-05-10T07:47:06;7.60;;;2.50;;
77085;SDS011;66014;53.134;18.006;2023-05-10T07:49:33;4.30;;;2.10;;
77085;SDS011;66014;53.134;18.006;2023-05-10T07:52:00;4.00;;;2.00;;
77085;SDS011;66014;53.134;18.006;2023-05-10T07:54:27;7.30;;;3.50;;
77085;SDS011;66014;53.134;18.006;2023-05-10T07:56:53;5.00;;;2.20;;
77085;SDS011;66014;53.134;18.006;2023-05-10T07:59:20;6.60;;;2.40;;
77085;SDS011;66014;53.134;18.006;2023-05-10T08:01:47;5.30;;;2.20;;
77085;SDS011;66014;53.134;18.006;2023-05-10T08:04:13;5.70;;;2.00;;
77085;SDS011;66014;53.134;18.006;2023-05-10T08:06:40;5.20;;;2.10;;
77085;SDS011;66014;53.134;18.006;2023-05-10T08:09:08;7.10;;;2.40;;
77085;SDS011;66014;53.134;18.006;2023-05-10T08:11:35;4.90;;;2.00;;
77085;SDS011;66014;53.134;18.006;2023-05-10T08:14:02;6.80;;;2.00;;
77085;SDS011;66014;53.134;18.006;2023-05-10T08:16:28;9.40;;;2.20;;
77085;SDS011;66014;53.134;18.006;2023-05-10T08:18:55;5.40;;;2.10;;
77085;SDS011;66014;53.134;18.006;2023-05-10T08:21:21;4.60;;;1.80;;
77085;SDS011;66014;53.134;18.006;2023-05-10T08:23:48;5.40;;;2.10;;
77085;SDS011;66014;53.134;18.006;2023-05-10T08:26:15;5.00;;;1.90;;
77085;SDS011;66014;53.134;18.006;2023-05-10T08:28:42;7.50;;;1.80;;
77085;SDS011;66014;53.134;18.006;2023-05-10T08:31:08;6.10;;;1.70;;
77085;SDS011;66014;53.134;18.006;2023-05-10T08:33:35;4.40;;;2.10;;
77085;SDS011;66014;53.134;18.006;2023-05-10T08:36:02;5.00;;;2.00;;
77085;SDS011;66014;53.134;18.006;2023-05-10T08:38:29;7.60;;;2.20;;
77085;SDS011;66014;53.134;18.006;2023-05-10T08:40:55;5.40;;;2.10;;
77085;SDS011;66014;53.134;18.006;2023-05-10T08:43:28;5.40;;;1.90;;
77085;SDS011;66014;53.134;18.006;2023-05-10T08:45:56;5.50;;;2.20;;
77085;SDS011;66014;53.134;18.006;2023-05-10T08:48:26;4.40;;;1.80;;
77085;SDS011;66014;53.134;18.006;2023-05-10T08:50:56;5.80;;;1.90;;
77085;SDS011;66014;53.134;18.006;2023-05-10T08:53:26;5.40;;;2.10;;
77085;SDS011;66014;53.134;18.006;2023-05-10T08:55:55;4.40;;;2.00;;
77085;SDS011;66014;53.134;18.006;2023-05-10T08:58:21;5.50;;;1.90;;
77085;SDS011;66014;53.134;18.006;2023-05-10T09:00:48;3.40;;;1.80;;
77085;SDS011;66014;53.134;18.006;2023-05-10T09:03:18;5.00;;;2.40;;
77085;SDS011;66014;53.134;18.006;2023-05-10T09:05:47;5.30;;;2.10;;
77085;SDS011;66014;53.134;18.006;2023-05-10T09:08:15;6.90;;;1.70;;
77085;SDS011;66014;53.134;18.006;2023-05-10T09:10:43;5.30;;;1.90;;
77085;SDS011;66014;53.134;18.006;2023-05-10T09:13:13;4.40;;;1.90;;
77085;SDS011;66014;53.134;18.006;2023-05-10T09:15:42;5.00;;;2.20;;
77085;SDS011;66014;53.134;18.006;2023-05-10T09:18:10;5.20;;;1.70;;
77085;SDS011;66014;53.134;18.006;2023-05-10T09:20:37;2.80;;;1.60;;
77085;SDS011;66014;53.134;18.006;2023-05-10T09:23:03;4.50;;;1.90;;
77085;SDS011;66014;53.134;18.006;2023-05-10T09:25:31;5.40;;;2.10;;
77085;SDS011;66014;53.134;18.006;2023-05-10T09:27:59;7.40;;;3.00;;
77085;SDS011;66014;53.134;18.006;2023-05-10T09:30:27;5.50;;;4.10;;
77085;SDS011;66014;53.134;18.006;2023-05-10T09:32:56;4.10;;;2.90;;
77085;SDS011;66014;53.134;18.006;2023-05-10T09:35:28;6.70;;;3.30;;
77085;SDS011;66014;53.134;18.006;2023-05-10T09:37:57;4.30;;;1.90;;
77085;SDS011;66014;53.134;18.006;2023-05-10T09:40:27;4.50;;;1.80;;
77085;SDS011;66014;53.134;18.006;2023-05-10T09:45:24;11.90;;;6.90;;
77085;SDS011;66014;53.134;18.006;2023-05-10T09:47:53;10.70;;;5.80;;
77085;SDS011;66014;53.134;18.006;2023-05-10T09:50:20;6.70;;;3.50;;
77085;SDS011;66014;53.134;18.006;2023-05-10T09:52:54;6.30;;;2.80;;
77085;SDS011;66014;53.134;18.006;2023-05-10T09:55:45;6.50;;;2.60;;
77085;SDS011;66014;53.134;18.006;2023-05-10T09:58:12;12.70;;;6.70;;
77085;SDS011;66014;53.134;18.006;2023-05-10T10:00:40;11.40;;;5.40;;
77085;SDS011;66014;53.134;18.006;2023-05-10T10:03:14;7.50;;;4.10;;
77085;SDS011;66014;53.134;18.006;2023-05-10T10:05:43;6.50;;;3.50;;
77085;SDS011;66014;53.134;18.006;2023-05-10T10:08:11;5.30;;;2.60;;
77085;SDS011;66014;53.134;18.006;2023-05-10T10:10:39;5.90;;;2.70;;
77085;SDS011;66014;53.134;18.006;2023-05-10T10:13:07;9.30;;;2.40;;
77085;SDS011;66014;53.134;18.006;2023-05-10T10:15:34;9.30;;;3.40;;
77085;SDS011;66014;53.134;18.006;2023-05-10T10:18:01;4.90;;;2.50;;
77085;SDS011;66014;53.134;18.006;2023-05-10T10:20:30;6.30;;;3.30;;
77085;SDS011;66014;53.134;18.006;2023-05-10T10:22:56;8.30;;;3.90;;
77085;SDS011;66014;53.134;18.006;2023-05-10T10:25:23;10.00;;;5.70;;
77085;SDS011;66014;53.134;18.006;2023-05-10T10:33:13;5.20;;;2.50;;
77085;SDS011;66014;53.134;18.006;2023-05-10T10:35:58;6.60;;;3.20;;
77085;SDS011;66014;53.134;18.006;2023-05-10T10:38:35;6.70;;;3.00;;
77085;SDS011;66014;53.134;18.006;2023-05-10T10:41:35;7.90;;;3.30;;
77085;SDS011;66014;53.134;18.006;2023-05-10T10:44:22;7.90;;;3.10;;
77085;SDS011;66014;53.134;18.006;2023-05-10T10:46:58;4.90;;;2.50;;
77085;SDS011;66014;53.134;18.006;2023-05-10T10:49:25;8.20;;;2.60;;
77085;SDS011;66014;53.134;18.006;2023-05-10T10:54:47;7.00;;;2.20;;
77085;SDS011;66014;53.134;18.006;2023-05-10T10:59:49;6.10;;;2.20;;
77085;SDS011;66014;53.134;18.006;2023-05-10T11:02:32;6.00;;;2.10;;
77085;SDS011;66014;53.134;18.006;2023-05-10T11:13:45;10.00;;;3.30;;
77085;SDS011;66014;53.134;18.006;2023-05-10T11:21:29;6.80;;;2.70;;
77085;SDS011;66014;53.134;18.006;2023-05-10T11:23:57;9.90;;;2.30;;
77085;SDS011;66014;53.134;18.006;2023-05-10T11:26:25;6.40;;;2.40;;
77085;SDS011;66014;53.134;18.006;2023-05-10T11:28:56;5.00;;;2.30;;
77085;SDS011;66014;53.134;18.006;2023-05-10T11:31:24;7.30;;;2.20;;
77085;SDS011;66014;53.134;18.006;2023-05-10T11:33:53;6.60;;;2.10;;
77085;SDS011;66014;53.134;18.006;2023-05-10T11:36:23;5.50;;;2.10;;
77085;SDS011;66014;53.134;18.006;2023-05-10T11:38:52;8.80;;;2.20;;
77085;SDS011;66014;53.134;18.006;2023-05-10T11:41:20;13.90;;;2.80;;
77085;SDS011;66014;53.134;18.006;2023-05-10T11:43:51;7.20;;;2.40;;
77085;SDS011;66014;53.134;18.006;2023-05-10T11:46:20;9.00;;;3.10;;
77085;SDS011;66014;53.134;18.006;2023-05-10T11:48:49;6.50;;;2.70;;
77085;SDS011;66014;53.134;18.006;2023-05-10T11:51:23;5.70;;;2.10;;
77085;SDS011;66014;53.134;18.006;2023-05-10T11:53:52;4.60;;;2.10;;
77085;SDS011;66014;53.134;18.006;2023-05-10T11:56:21;5.50;;;2.00;;
77085;SDS011;66014;53.134;18.006;2023-05-10T11:58:56;8.50;;;2.40;;
77085;SDS011;66014;53.134;18.006;2023-05-10T12:01:24;6.40;;;1.80;;
77085;SDS011;66014;53.134;18.006;2023-05-10T12:03:52;3.90;;;2.10;;
77085;SDS011;66014;53.134;18.006;2023-05-10T12:06:21;5.80;;;2.10;;
77085;SDS011;66014;53.134;18.006;2023-05-10T12:08:48;5.70;;;1.80;;
77085;SDS011;66014;53.134;18.006;2023-05-10T12:11:18;6.30;;;2.00;;
77085;SDS011;66014;53.134;18.006;2023-05-10T12:13:47;9.40;;;2.50;;
77085;SDS011;66014;53.134;18.006;2023-05-10T12:16:15;4.60;;;2.00;;
77085;SDS011;66014;53.134;18.006;2023-05-10T12:18:43;9.40;;;1.90;;
77085;SDS011;66014;53.134;18.006;2023-05-10T12:21:11;7.30;;;2.00;;
77085;SDS011;66014;53.134;18.006;2023-05-10T12:23:38;6.20;;;2.20;;
77085;SDS011;66014;53.134;18.006;2023-05-10T12:26:05;7.70;;;2.00;;
77085;SDS011;66014;53.134;18.006;2023-05-10T12:28:33;3.20;;;2.60;;
77085;SDS011;66014;53.134;18.006;2023-05-10T12:30:59;4.20;;;1.70;;
77085;SDS011;66014;53.134;18.006;2023-05-10T12:33:26;4.10;;;1.80;;
77085;SDS011;66014;53.134;18.006;2023-05-10T12:35:53;7.80;;;2.10;;
77085;SDS011;66014;53.134;18.006;2023-05-10T12:38:28;7.00;;;2.30;;
77085;SDS011;66014;53.134;18.006;2023-05-10T12:40:57;7.40;;;2.30;;
77085;SDS011;66014;53.134;18.006;2023-05-10T12:43:28;7.30;;;2.40;;
77085;SDS011;66014;53.134;18.006;2023-05-10T12:45:55;11.50;;;3.10;;
77085;SDS011;66014;53.134;18.006;2023-05-10T12:48:22;6.80;;;1.90;;
77085;SDS011;66014;53.134;18.006;2023-05-10T12:50:49;7.50;;;2.30;;
77085;SDS011;66014;53.134;18.006;2023-05-10T12:53:16;4.50;;;1.90;;
77085;SDS011;66014;53.134;18.006;2023-05-10T12:55:43;5.20;;;2.20;;
77085;SDS011;66014;53.134;18.006;2023-05-10T12:58:10;5.60;;;2.00;;
77085;SDS011;66014;53.134;18.006;2023-05-10T13:00:37;6.30;;;1.90;;
77085;SDS011;66014;53.134;18.006;2023-05-10T13:03:04;11.20;;;2.80;;
77085;SDS011;66014;53.134;18.006;2023-05-10T13:05:32;4.50;;;2.00;;
77085;SDS011;66014;53.134;18.006;2023-05-10T13:07:59;17.10;;;7.50;;
77085;SDS011;66014;53.134;18.006;2023-05-10T13:10:26;7.00;;;2.10;;
77085;SDS011;66014;53.134;18.006;2023-05-10T13:12:56;4.60;;;1.80;;
77085;SDS011;66014;53.134;18.006;2023-05-10T13:15:23;6.60;;;2.00;;
77085;SDS011;66014;53.134;18.006;2023-05-10T13:17:49;11.00;;;1.90;;
77085;SDS011;66014;53.134;18.006;2023-05-10T13:20:16;7.50;;;2.40;;
77085;SDS011;66014;53.134;18.006;2023-05-10T13:22:43;4.50;;;1.70;;
77085;SDS011;66014;53.134;18.006;2023-05-10T13:25:11;7.80;;;1.80;;
77085;SDS011;66014;53.134;18.006;2023-05-10T13:27:39;7.80;;;2.30;;
77085;SDS011;66014;53.134;18.006;2023-05-10T13:30:07;10.40;;;4.30;;
77085;SDS011;66014;53.134;18.006;2023-05-10T13:32:35;8.70;;;3.20;;
77085;SDS011;66014;53.134;18.006;2023-05-10T13:35:02;7.20;;;2.30;;
77085;SDS011;66014;53.134;18.006;2023-05-10T13:37:32;7.90;;;2.10;;
77085;SDS011;66014;53.134;18.006;2023-05-10T13:40:01;6.20;;;2.20;;
77085;SDS011;66014;53.134;18.006;2023-05-10T13:42:28;9.70;;;2.00;;
77085;SDS011;66014;53.134;18.006;2023-05-10T13:44:55;6.40;;;2.60;;
77085;SDS011;66014;53.134;18.006;2023-05-10T13:47:21;7.10;;;4.20;;
77085;SDS011;66014;53.134;18.006;2023-05-10T13:49:48;6.40;;;5.20;;
77085;SDS011;66014;53.134;18.006;2023-05-10T13:52:15;8.80;;;3.80;;
77085;SDS011;66014;53.134;18.006;2023-05-10T13:54:41;11.90;;;3.60;;
77085;SDS011;66014;53.134;18.006;2023-05-10T13:57:08;7.90;;;3.10;;
77085;SDS011;66014;53.134;18.006;2023-05-10T13:59:35;5.60;;;2.40;;
77085;SDS011;66014;53.134;18.006;2023-05-10T14:02:02;15.70;;;8.60;;
77085;SDS011;66014;53.134;18.006;2023-05-10T14:04:29;8.60;;;5.20;;
77085;SDS011;66014;53.134;18.006;2023-05-10T14:06:56;5.30;;;2.70;;
77085;SDS011;66014;53.134;18.006;2023-05-10T14:09:23;7.00;;;2.10;;
77085;SDS011;66014;53.134;18.006;2023-05-10T14:11:49;9.60;;;2.50;;
77085;SDS011;66014;53.134;18.006;2023-05-10T14:14:16;7.50;;;2.50;;
77085;SDS011;66014;53.134;18.006;2023-05-10T14:16:43;9.80;;;2.70;;
77085;SDS011;66014;53.134;18.006;2023-05-10T14:19:11;7.80;;;3.30;;
77085;SDS011;66014;53.134;18.006;2023-05-10T14:21:38;8.10;;;3.00;;
77085;SDS011;66014;53.134;18.006;2023-05-10T14:24:04;7.30;;;3.10;;
77085;SDS011;66014;53.134;18.006;2023-05-10T14:26:32;11.80;;;5.60;;
77085;SDS011;66014;53.134;18.006;2023-05-10T14:29:00;10.60;;;2.80;;
77085;SDS011;66014;53.134;18.006;2023-05-10T14:31:27;6.50;;;3.50;;
77085;SDS011;66014;53.134;18.006;2023-05-10T14:33:56;4.90;;;2.50;;
77085;SDS011;66014;53.134;18.006;2023-05-10T14:36:23;5.80;;;2.60;;
77085;SDS011;66014;53.134;18.006;2023-05-10T14:38:50;10.50;;;3.10;;
77085;SDS011;66014;53.134;18.006;2023-05-10T14:41:17;8.10;;;2.50;;
77085;SDS011;66014;53.134;18.006;2023-05-10T14:43:44;4.20;;;2.40;;
77085;SDS011;66014;53.134;18.006;2023-05-10T14:46:11;5.80;;;2.20;;
77085;SDS011;66014;53.134;18.006;2023-05-10T14:48:37;6.30;;;2.50;;
77085;SDS011;66014;53.134;18.006;2023-05-10T14:51:04;6.30;;;2.60;;
77085;SDS011;66014;53.134;18.006;2023-05-10T14:53:31;6.80;;;2.40;;
77085;SDS011;66014;53.134;18.006;2023-05-10T14:56:00;7.10;;;2.30;;
77085;SDS011;66014;53.134;18.006;2023-05-10T14:58:30;8.90;;;3.20;;
77085;SDS011;66014;53.134;18.006;2023-05-10T15:00:57;5.50;;;2.20;;
77085;SDS011;66014;53.134;18.006;2023-05-10T15:03:24;7.30;;;2.50;;
77085;SDS011;66014;53.134;18.006;2023-05-10T15:05:51;7.40;;;2.50;;
77085;SDS011;66014;53.134;18.006;2023-05-10T15:08:18;6.90;;;2.50;;
77085;SDS011;66014;53.134;18.006;2023-05-10T15:10:44;7.00;;;2.60;;
77085;SDS011;66014;53.134;18.006;2023-05-10T15:13:11;7.80;;;2.50;;
77085;SDS011;66014;53.134;18.006;2023-05-10T15:15:38;4.70;;;2.50;;
77085;SDS011;66014;53.134;18.006;2023-05-10T15:18:04;5.60;;;2.60;;
77085;SDS011;66014;53.134;18.006;2023-05-10T15:20:32;8.00;;;2.30;;
77085;SDS011;66014;53.134;18.006;2023-05-10T15:22:58;7.80;;;2.80;;